createdAt,value
2023-04-18T00:03:24.637Z,8.94
2023-04-18T00:08:43.210Z,8.81
2023-04-18T00:14:01.981Z,8.88
2023-04-18T00:24:28.418Z,8.63
2023-04-18T00:29:47.178Z,8.63
2023-04-18T00:35:05.958Z,8.56
2023-04-18T00:40:24.659Z,8.63
2023-04-18T00:45:43.445Z,8.56
2023-04-18T00:51:02.205Z,8.5
2023-04-18T00:56:20.860Z,8.44
2023-04-18T01:01:39.392Z,8.19
2023-04-18T01:06:58.039Z,8.06
2023-04-18T01:12:16.629Z,7.81
2023-04-18T01:17:35.172Z,7.62
2023-04-18T01:22:53.834Z,7.56
2023-04-18T01:28:12.614Z,7.5
2023-04-18T01:38:38.036Z,7.37
2023-04-18T01:43:56.830Z,7.31
2023-04-18T01:49:15.755Z,7.37
2023-04-18T01:54:34.530Z,6.94
2023-04-18T01:59:53.262Z,7.06
2023-04-18T02:05:11.962Z,7.06
2023-04-18T02:10:30.297Z,7
2023-04-18T02:15:48.970Z,7
2023-04-18T02:21:07.640Z,7.19
2023-04-18T02:26:26.345Z,7.25
2023-04-18T02:31:45.208Z,7.37
2023-04-18T02:37:03.786Z,7.56
2023-04-18T02:42:22.612Z,7.62
2023-04-18T02:47:51.619Z,7.62
2023-04-18T02:52:59.617Z,7.75
2023-04-18T02:58:18.375Z,7.69
2023-04-18T03:03:37.170Z,7.62
2023-04-18T03:08:55.475Z,7.56
2023-04-18T03:14:14.150Z,7.56
2023-04-18T03:19:32.803Z,7.5
2023-04-18T03:24:51.125Z,7.5
2023-04-18T03:30:09.586Z,7.37
2023-04-18T03:35:28.267Z,7.31
2023-04-18T03:40:46.679Z,7.37
2023-04-18T03:46:05.527Z,7.44
2023-04-18T03:51:24.206Z,7.37
2023-04-18T03:56:42.832Z,7.31
2023-04-18T04:02:01.564Z,7.19
2023-04-18T04:07:20.063Z,7
2023-04-18T04:12:38.747Z,6.75
2023-04-18T04:17:57.363Z,6.56
2023-04-18T04:23:15.638Z,6.5
2023-04-18T04:28:33.914Z,6.37
2023-04-18T04:33:52.354Z,6.31
2023-04-18T04:39:10.998Z,6.37
2023-04-18T04:44:29.717Z,6.37
2023-04-18T04:49:48.050Z,6.5
2023-04-18T04:55:07.862Z,6.69
2023-04-18T05:00:26.655Z,6.94
2023-04-18T05:05:46.524Z,7.19
2023-04-18T05:11:06.375Z,7.37
2023-04-18T05:16:26.306Z,7.69
2023-04-18T05:21:48.004Z,8.06
2023-04-18T05:27:06.932Z,8.13
2023-04-18T05:32:25.352Z,8
2023-04-18T05:37:43.845Z,8.19
2023-04-18T05:43:05.618Z,8.19
2023-04-18T05:48:24.002Z,8.31
2023-04-18T05:53:43.755Z,8.19
2023-04-18T05:59:02.114Z,8.44
2023-04-18T06:04:21.205Z,8.5
2023-04-18T06:09:42.232Z,9
2023-04-18T06:14:58.713Z,9.31
2023-04-18T06:20:17.104Z,9.13
2023-04-18T06:25:37.660Z,9.06
2023-04-18T06:30:56.380Z,8.81
2023-04-18T06:36:15.759Z,8.81
2023-04-18T06:41:34.641Z,8.56
2023-04-18T06:46:53.080Z,8.63
2023-04-18T06:52:11.697Z,8.75
2023-04-18T06:57:30.423Z,8.88
2023-04-18T07:02:48.941Z,9.13
2023-04-18T07:08:07.538Z,9.44
2023-04-18T07:13:26.233Z,9.56
2023-04-18T07:18:45.025Z,9.81
2023-04-18T07:29:10.716Z,10.13
2023-04-18T07:34:30.021Z,10.56
2023-04-18T07:39:49.173Z,10.94
2023-04-18T07:45:07.338Z,10.31
2023-04-18T07:50:25.741Z,10
2023-04-18T07:55:44.139Z,9.56
2023-04-18T08:01:02.533Z,9.44
2023-04-18T08:06:21.342Z,9.75
2023-04-18T08:11:40.171Z,10.06
2023-04-18T08:16:58.989Z,10.56
2023-04-18T08:22:18.731Z,10.56
2023-04-18T08:27:37.528Z,10.44
2023-04-18T08:32:56.469Z,10.88
2023-04-18T08:43:22.054Z,10.75
2023-04-18T08:48:40.798Z,13.88
2023-04-18T08:54:00.653Z,15.25
2023-04-18T08:59:18.652Z,13
2023-04-18T09:04:37.186Z,12.44
2023-04-18T09:09:55.661Z,12.37
2023-04-18T09:15:13.884Z,12.31
2023-04-18T09:20:31.872Z,12.19
2023-04-18T09:25:50.484Z,11.94
2023-04-18T09:31:09.554Z,12.25
2023-04-18T09:36:28.312Z,13.19
2023-04-18T09:41:48.455Z,15
2023-04-18T09:47:09.322Z,14.19
2023-04-18T09:52:27.604Z,13.69
2023-04-18T09:57:46.307Z,14.5
2023-04-18T10:03:07.217Z,17.62
2023-04-18T10:08:25.745Z,16.75
2023-04-18T10:13:43.417Z,15
2023-04-18T10:24:09.295Z,15.56
2023-04-18T10:29:27.955Z,16
2023-04-18T10:34:46.197Z,15.94
2023-04-18T10:40:05.369Z,15.5
2023-04-18T10:45:23.805Z,16.94
2023-04-18T10:50:42.018Z,16.12
2023-04-18T10:56:01.415Z,17.94
2023-04-18T11:01:21.247Z,18.12
2023-04-18T11:06:39.356Z,16.75
2023-04-18T11:11:57.696Z,16.69
2023-04-18T11:17:15.992Z,16.75
2023-04-18T11:22:34.744Z,16.62
2023-04-18T11:27:52.636Z,15.5
2023-04-18T11:33:11.021Z,15.25
2023-04-18T11:38:29.212Z,14.56
2023-04-18T11:43:49.599Z,14.75
2023-04-18T11:49:08.173Z,15.06
2023-04-18T11:54:26.617Z,14.81
2023-04-18T11:59:45.416Z,14.69
2023-04-18T12:05:04.623Z,14.87
2023-04-18T12:10:22.996Z,14.69
2023-04-18T12:15:42.940Z,14.44
2023-04-18T12:21:01.489Z,14.13
2023-04-18T12:26:20.305Z,14.13
2023-04-18T12:31:39.021Z,14.31
2023-04-18T12:36:57.575Z,14.75
2023-04-18T12:42:16.677Z,15.56
2023-04-18T12:47:36.327Z,16.44
2023-04-18T12:52:54.636Z,16.12
2023-04-18T12:58:15.398Z,15.75
2023-04-18T13:03:34.305Z,15.81
2023-04-18T13:08:52.903Z,15.81
2023-04-18T13:14:11.883Z,15.56
2023-04-18T13:19:30.226Z,15.44
2023-04-18T13:24:48.707Z,15.06
2023-04-18T13:30:07.529Z,15.25
2023-04-18T13:35:27.357Z,15.56
2023-04-18T13:40:46.113Z,15.69
2023-04-18T13:46:04.310Z,15.38
2023-04-18T13:51:22.621Z,15.5
2023-04-18T13:56:41.182Z,15.25
2023-04-18T14:02:00.284Z,15.31
2023-04-18T14:07:19.815Z,15.44
2023-04-18T14:12:38.400Z,15.38
2023-04-18T14:17:57.394Z,15.5
2023-04-18T14:23:16.868Z,17.44
2023-04-18T14:28:35.964Z,17.44
2023-04-18T14:33:54.265Z,16.62
2023-04-18T14:39:12.963Z,16.25
2023-04-18T14:44:31.514Z,16.62
2023-04-18T14:49:50.222Z,17
2023-04-18T15:00:15.447Z,16.19
2023-04-18T15:05:35.790Z,15.88
2023-04-18T15:10:53.950Z,15.81
2023-04-18T15:16:12.197Z,15.13
2023-04-18T15:21:31.513Z,15.88
2023-04-18T15:26:51.018Z,17.37
2023-04-18T15:32:09.973Z,17.19
2023-04-18T15:37:28.371Z,16.44
2023-04-18T15:42:46.594Z,15.94
2023-04-18T15:48:06.195Z,15.63
2023-04-18T15:53:24.846Z,15.44
2023-04-18T15:58:43.295Z,15.31
2023-04-18T16:04:02.147Z,16.06
2023-04-18T16:09:20.714Z,15.63
2023-04-18T16:14:40.286Z,15.56
2023-04-18T16:19:58.922Z,15.56
2023-04-18T16:25:17.396Z,15.19
2023-04-18T16:30:35.641Z,15.56
2023-04-18T16:35:54.691Z,15.69
2023-04-18T16:41:13.320Z,15.31
2023-04-18T16:46:31.988Z,15
2023-04-18T16:51:51.472Z,14.69
2023-04-18T16:57:09.726Z,14.38
2023-04-18T17:02:27.961Z,14
2023-04-18T17:07:47.301Z,13.75
2023-04-18T17:13:07.808Z,13.75
2023-04-18T17:18:26.640Z,13.69
2023-04-18T17:23:44.898Z,13.56
2023-04-18T17:29:03.295Z,13.19
2023-04-18T17:34:22.874Z,13
2023-04-18T17:39:42.569Z,12.94
2023-04-18T17:45:01.353Z,12.81
2023-04-18T17:50:19.998Z,12.81
2023-04-18T17:55:38.271Z,12.69
2023-04-18T18:00:57.082Z,12.69
2023-04-18T18:06:16.768Z,12.37
2023-04-18T18:11:35.147Z,12.31
2023-04-18T18:16:54.860Z,12.37
2023-04-18T18:22:13.125Z,12.31
2023-04-18T18:27:31.965Z,12.19
2023-04-18T18:32:50.679Z,12.13
2023-04-18T18:38:09.313Z,12.06
2023-04-18T18:43:28.051Z,12
2023-04-18T18:48:46.630Z,11.94
2023-04-18T18:54:06.366Z,11.88
2023-04-18T18:59:26.003Z,11.81
2023-04-18T19:04:44.313Z,11.75
2023-04-18T19:10:02.822Z,11.69
2023-04-18T19:15:24.518Z,11.63
2023-04-18T19:20:44.324Z,11.63
2023-04-18T19:26:03.082Z,11.5
2023-04-18T19:31:21.434Z,11.5
2023-04-18T19:36:42.984Z,11.44
2023-04-18T19:42:01.817Z,11.38
2023-04-18T19:47:20.583Z,11.31
2023-04-18T19:52:39.148Z,11.31
2023-04-18T19:57:57.433Z,11.38
2023-04-18T20:03:16.350Z,11.25
2023-04-18T20:08:34.365Z,11.25
2023-04-18T20:13:52.910Z,11.25
2023-04-18T20:19:12.875Z,11.19
2023-04-18T20:24:31.051Z,11.19
2023-04-18T20:29:49.668Z,11.12
2023-04-18T20:35:08.366Z,11.06
2023-04-18T20:40:26.955Z,11
2023-04-18T20:45:45.495Z,11
2023-04-18T20:51:04.222Z,11
2023-04-18T21:01:29.879Z,10.88
2023-04-18T21:06:48.912Z,10.88
2023-04-18T21:12:07.666Z,10.88
2023-04-18T21:17:26.271Z,10.88
2023-04-18T21:22:45.006Z,10.88
2023-04-18T21:28:04.616Z,10.81
2023-04-18T21:33:23.240Z,10.81
2023-04-18T21:38:41.910Z,10.75
2023-04-18T21:44:00.846Z,10.69
2023-04-18T21:49:20.556Z,10.69
2023-04-18T21:54:39.559Z,10.56
2023-04-18T22:04:56.409Z,10.5
2023-04-18T22:10:15.129Z,10.56
2023-04-18T22:15:34.145Z,10.44
2023-04-18T22:20:52.556Z,10.38
2023-04-18T22:26:11.146Z,10.31
2023-04-18T22:31:29.443Z,10.31
2023-04-18T22:36:48.987Z,10.31
2023-04-18T22:42:07.900Z,10.25
2023-04-18T22:47:26.468Z,10.25
2023-04-18T22:52:46.082Z,10.19
2023-04-18T22:58:04.829Z,10.19
2023-04-18T23:03:23.628Z,10.13
2023-04-18T23:08:41.683Z,10.13
2023-04-18T23:14:01.482Z,10.06
2023-04-18T23:19:20.982Z,10.06
2023-04-18T23:24:39.325Z,10.06
2023-04-18T23:29:58.002Z,10.06
2023-04-18T23:35:16.758Z,10
2023-04-18T23:40:35.412Z,9.94
2023-04-18T23:51:00.968Z,9.94
2023-04-18T23:56:19.572Z,9.94
